sensor_id;sensor_type;location;lat;lon;timestamp;P1;durP1;ratioP1;P2;durP2;ratioP2
61003;SDS011;46889;37.310;13.582;2023-10-09T00:01:17;10.20;;;7.50;;
61003;SDS011;46889;37.310;13.582;2023-10-09T00:03:45;10.30;;;7.22;;
61003;SDS011;46889;37.310;13.582;2023-10-09T00:06:23;8.70;;;7.03;;
61003;SDS011;46889;37.310;13.582;2023-10-09T00:09:01;13.55;;;7.45;;
61003;SDS011;46889;37.310;13.582;2023-10-09T00:11:42;10.38;;;7.32;;
61003;SDS011;46889;37.310;13.582;2023-10-09T00:14:12;13.38;;;7.57;;
61003;SDS011;46889;37.310;13.582;2023-10-09T00:16:40;10.43;;;7.15;;
61003;SDS011;46889;37.310;13.582;2023-10-09T00:19:14;10.63;;;7.50;;
61003;SDS011;46889;37.310;13.582;2023-10-09T00:21:51;11.07;;;7.10;;
61003;SDS011;46889;37.310;13.582;2023-10-09T00:24:20;10.88;;;7.28;;
61003;SDS011;46889;37.310;13.582;2023-10-09T00:26:55;10.20;;;7.05;;
61003;SDS011;46889;37.310;13.582;2023-10-09T00:29:27;9.38;;;6.65;;
61003;SDS011;46889;37.310;13.582;2023-10-09T00:32:00;10.52;;;6.93;;
61003;SDS011;46889;37.310;13.582;2023-10-09T00:34:30;10.25;;;7.55;;
61003;SDS011;46889;37.310;13.582;2023-10-09T00:37:07;10.60;;;7.43;;
61003;SDS011;46889;37.310;13.582;2023-10-09T00:39:54;10.30;;;7.35;;
61003;SDS011;46889;37.310;13.582;2023-10-09T00:42:23;9.60;;;6.78;;
61003;SDS011;46889;37.310;13.582;2023-10-09T00:44:55;11.88;;;8.00;;
61003;SDS011;46889;37.310;13.582;2023-10-09T00:49:59;10.35;;;7.28;;
61003;SDS011;46889;37.310;13.582;2023-10-09T00:52:38;11.65;;;7.28;;
61003;SDS011;46889;37.310;13.582;2023-10-09T00:55:10;10.57;;;7.28;;
61003;SDS011;46889;37.310;13.582;2023-10-09T00:57:46;10.18;;;7.45;;
61003;SDS011;46889;37.310;13.582;2023-10-09T01:00:23;10.98;;;7.38;;
61003;SDS011;46889;37.310;13.582;2023-10-09T01:03:16;11.32;;;7.47;;
61003;SDS011;46889;37.310;13.582;2023-10-09T01:05:51;10.38;;;7.18;;
61003;SDS011;46889;37.310;13.582;2023-10-09T01:08:33;9.95;;;7.20;;
61003;SDS011;46889;37.310;13.582;2023-10-09T01:11:06;9.57;;;7.22;;
61003;SDS011;46889;37.310;13.582;2023-10-09T01:13:41;11.68;;;6.80;;
61003;SDS011;46889;37.310;13.582;2023-10-09T01:16:10;13.68;;;7.57;;
61003;SDS011;46889;37.310;13.582;2023-10-09T01:18:44;11.18;;;6.50;;
61003;SDS011;46889;37.310;13.582;2023-10-09T01:21:15;11.45;;;7.88;;
61003;SDS011;46889;37.310;13.582;2023-10-09T01:23:52;12.80;;;7.10;;
61003;SDS011;46889;37.310;13.582;2023-10-09T01:26:31;11.23;;;6.93;;
61003;SDS011;46889;37.310;13.582;2023-10-09T01:29:12;9.35;;;6.93;;
61003;SDS011;46889;37.310;13.582;2023-10-09T01:31:45;10.23;;;7.50;;
61003;SDS011;46889;37.310;13.582;2023-10-09T01:34:19;11.57;;;7.18;;
61003;SDS011;46889;37.310;13.582;2023-10-09T01:37:12;8.98;;;6.85;;
61003;SDS011;46889;37.310;13.582;2023-10-09T01:39:48;11.20;;;7.32;;
61003;SDS011;46889;37.310;13.582;2023-10-09T01:42:16;10.63;;;7.60;;
61003;SDS011;46889;37.310;13.582;2023-10-09T01:44:55;10.45;;;7.35;;
61003;SDS011;46889;37.310;13.582;2023-10-09T01:47:23;11.48;;;7.30;;
61003;SDS011;46889;37.310;13.582;2023-10-09T01:49:56;10.77;;;7.15;;
61003;SDS011;46889;37.310;13.582;2023-10-09T01:52:23;14.23;;;8.00;;
61003;SDS011;46889;37.310;13.582;2023-10-09T01:54:50;11.05;;;7.20;;
61003;SDS011;46889;37.310;13.582;2023-10-09T01:57:18;10.85;;;6.93;;
61003;SDS011;46889;37.310;13.582;2023-10-09T01:59:49;9.48;;;7.45;;
61003;SDS011;46889;37.310;13.582;2023-10-09T02:02:23;10.52;;;7.38;;
61003;SDS011;46889;37.310;13.582;2023-10-09T02:04:53;12.70;;;7.55;;
61003;SDS011;46889;37.310;13.582;2023-10-09T02:07:49;11.10;;;7.65;;
61003;SDS011;46889;37.310;13.582;2023-10-09T02:10:19;11.23;;;7.22;;
61003;SDS011;46889;37.310;13.582;2023-10-09T02:12:50;13.27;;;7.30;;
61003;SDS011;46889;37.310;13.582;2023-10-09T02:15:31;11.23;;;7.47;;
61003;SDS011;46889;37.310;13.582;2023-10-09T02:18:19;10.63;;;7.45;;
61003;SDS011;46889;37.310;13.582;2023-10-09T02:20:49;11.73;;;7.35;;
61003;SDS011;46889;37.310;13.582;2023-10-09T02:23:29;11.32;;;7.85;;
61003;SDS011;46889;37.310;13.582;2023-10-09T02:26:11;11.20;;;6.55;;
61003;SDS011;46889;37.310;13.582;2023-10-09T02:28:57;11.88;;;7.50;;
61003;SDS011;46889;37.310;13.582;2023-10-09T02:31:27;10.40;;;7.60;;
61003;SDS011;46889;37.310;13.582;2023-10-09T02:34:06;13.07;;;7.75;;
61003;SDS011;46889;37.310;13.582;2023-10-09T02:36:40;9.90;;;7.53;;
61003;SDS011;46889;37.310;13.582;2023-10-09T02:39:07;17.05;;;7.57;;
61003;SDS011;46889;37.310;13.582;2023-10-09T02:41:59;10.25;;;7.43;;
61003;SDS011;46889;37.310;13.582;2023-10-09T02:44:27;12.07;;;7.28;;
61003;SDS011;46889;37.310;13.582;2023-10-09T02:47:04;11.07;;;7.70;;
61003;SDS011;46889;37.310;13.582;2023-10-09T02:49:37;11.52;;;7.35;;
61003;SDS011;46889;37.310;13.582;2023-10-09T02:52:05;9.23;;;6.95;;
61003;SDS011;46889;37.310;13.582;2023-10-09T02:54:35;10.88;;;7.60;;
61003;SDS011;46889;37.310;13.582;2023-10-09T02:57:06;10.35;;;7.13;;
61003;SDS011;46889;37.310;13.582;2023-10-09T02:59:33;13.27;;;7.50;;
61003;SDS011;46889;37.310;13.582;2023-10-09T03:02:00;12.40;;;7.22;;
61003;SDS011;46889;37.310;13.582;2023-10-09T03:04:26;12.90;;;7.35;;
61003;SDS011;46889;37.310;13.582;2023-10-09T03:06:59;11.70;;;6.85;;
61003;SDS011;46889;37.310;13.582;2023-10-09T03:09:26;14.38;;;7.40;;
61003;SDS011;46889;37.310;13.582;2023-10-09T03:11:56;11.70;;;7.38;;
61003;SDS011;46889;37.310;13.582;2023-10-09T03:14:27;10.52;;;7.60;;
61003;SDS011;46889;37.310;13.582;2023-10-09T03:17:00;11.32;;;6.88;;
61003;SDS011;46889;37.310;13.582;2023-10-09T03:19:27;9.32;;;7.60;;
61003;SDS011;46889;37.310;13.582;2023-10-09T03:21:54;12.05;;;7.53;;
61003;SDS011;46889;37.310;13.582;2023-10-09T03:24:26;10.27;;;7.55;;
61003;SDS011;46889;37.310;13.582;2023-10-09T03:26:53;11.07;;;7.25;;
61003;SDS011;46889;37.310;13.582;2023-10-09T03:29:22;10.25;;;7.05;;
61003;SDS011;46889;37.310;13.582;2023-10-09T03:31:50;12.15;;;7.97;;
61003;SDS011;46889;37.310;13.582;2023-10-09T03:34:17;13.63;;;7.78;;
61003;SDS011;46889;37.310;13.582;2023-10-09T03:39:13;10.35;;;6.85;;
61003;SDS011;46889;37.310;13.582;2023-10-09T03:42:06;9.90;;;7.40;;
61003;SDS011;46889;37.310;13.582;2023-10-09T03:44:37;12.40;;;7.45;;
61003;SDS011;46889;37.310;13.582;2023-10-09T03:47:07;10.85;;;7.25;;
61003;SDS011;46889;37.310;13.582;2023-10-09T03:49:36;12.05;;;7.45;;
61003;SDS011;46889;37.310;13.582;2023-10-09T03:52:04;12.40;;;7.10;;
61003;SDS011;46889;37.310;13.582;2023-10-09T03:54:34;8.73;;;6.68;;
61003;SDS011;46889;37.310;13.582;2023-10-09T03:57:01;12.75;;;7.32;;
61003;SDS011;46889;37.310;13.582;2023-10-09T03:59:27;10.70;;;6.95;;
61003;SDS011;46889;37.310;13.582;2023-10-09T04:01:56;10.18;;;6.50;;
61003;SDS011;46889;37.310;13.582;2023-10-09T04:04:23;10.68;;;6.82;;
61003;SDS011;46889;37.310;13.582;2023-10-09T04:06:50;10.55;;;6.47;;
61003;SDS011;46889;37.310;13.582;2023-10-09T04:09:20;14.82;;;6.85;;
61003;SDS011;46889;37.310;13.582;2023-10-09T04:11:46;9.25;;;6.22;;
61003;SDS011;46889;37.310;13.582;2023-10-09T04:14:15;11.88;;;7.03;;
61003;SDS011;46889;37.310;13.582;2023-10-09T04:16:51;11.02;;;7.40;;
61003;SDS011;46889;37.310;13.582;2023-10-09T04:19:17;10.75;;;6.82;;
61003;SDS011;46889;37.310;13.582;2023-10-09T04:21:49;9.82;;;6.65;;
61003;SDS011;46889;37.310;13.582;2023-10-09T04:24:20;17.70;;;7.25;;
61003;SDS011;46889;37.310;13.582;2023-10-09T04:26:50;12.00;;;7.53;;
61003;SDS011;46889;37.310;13.582;2023-10-09T04:29:23;17.65;;;7.50;;
61003;SDS011;46889;37.310;13.582;2023-10-09T04:31:54;14.60;;;7.60;;
61003;SDS011;46889;37.310;13.582;2023-10-09T04:34:24;12.10;;;7.97;;
61003;SDS011;46889;37.310;13.582;2023-10-09T04:37:00;11.23;;;7.18;;
61003;SDS011;46889;37.310;13.582;2023-10-09T04:39:27;13.70;;;7.35;;
61003;SDS011;46889;37.310;13.582;2023-10-09T04:41:56;12.45;;;7.85;;
61003;SDS011;46889;37.310;13.582;2023-10-09T04:44:44;14.98;;;7.68;;
61003;SDS011;46889;37.310;13.582;2023-10-09T04:47:26;8.85;;;6.72;;
61003;SDS011;46889;37.310;13.582;2023-10-09T04:52:56;11.65;;;7.40;;
61003;SDS011;46889;37.310;13.582;2023-10-09T04:55:39;11.50;;;7.22;;
61003;SDS011;46889;37.310;13.582;2023-10-09T04:58:09;11.43;;;7.38;;
61003;SDS011;46889;37.310;13.582;2023-10-09T05:00:49;9.45;;;6.35;;
61003;SDS011;46889;37.310;13.582;2023-10-09T05:03:24;11.27;;;7.15;;
61003;SDS011;46889;37.310;13.582;2023-10-09T05:05:55;15.25;;;7.45;;
61003;SDS011;46889;37.310;13.582;2023-10-09T05:08:42;10.77;;;6.90;;
61003;SDS011;46889;37.310;13.582;2023-10-09T05:11:11;10.90;;;7.50;;
61003;SDS011;46889;37.310;13.582;2023-10-09T05:13:59;12.75;;;6.90;;
61003;SDS011;46889;37.310;13.582;2023-10-09T05:16:38;9.30;;;6.88;;
61003;SDS011;46889;37.310;13.582;2023-10-09T05:19:22;10.43;;;7.13;;
61003;SDS011;46889;37.310;13.582;2023-10-09T05:22:10;12.73;;;6.63;;
61003;SDS011;46889;37.310;13.582;2023-10-09T05:24:57;14.43;;;6.93;;
61003;SDS011;46889;37.310;13.582;2023-10-09T05:27:24;10.57;;;6.90;;
61003;SDS011;46889;37.310;13.582;2023-10-09T05:30:10;12.13;;;7.38;;
61003;SDS011;46889;37.310;13.582;2023-10-09T05:32:58;10.05;;;6.97;;
61003;SDS011;46889;37.310;13.582;2023-10-09T05:35:44;12.70;;;7.28;;
61003;SDS011;46889;37.310;13.582;2023-10-09T05:38:30;14.38;;;8.02;;
61003;SDS011;46889;37.310;13.582;2023-10-09T05:41:01;15.65;;;7.45;;
61003;SDS011;46889;37.310;13.582;2023-10-09T05:43:47;10.70;;;7.35;;
61003;SDS011;46889;37.310;13.582;2023-10-09T05:46:32;10.95;;;6.40;;
61003;SDS011;46889;37.310;13.582;2023-10-09T05:49:14;12.05;;;6.60;;
61003;SDS011;46889;37.310;13.582;2023-10-09T05:51:49;15.23;;;6.85;;
61003;SDS011;46889;37.310;13.582;2023-10-09T05:54:18;12.32;;;6.97;;
61003;SDS011;46889;37.310;13.582;2023-10-09T05:57:03;10.77;;;6.63;;
61003;SDS011;46889;37.310;13.582;2023-10-09T05:59:54;11.05;;;6.45;;
61003;SDS011;46889;37.310;13.582;2023-10-09T06:02:55;13.00;;;6.47;;
61003;SDS011;46889;37.310;13.582;2023-10-09T06:05:40;10.82;;;6.90;;
61003;SDS011;46889;37.310;13.582;2023-10-09T06:08:07;15.98;;;6.70;;
61003;SDS011;46889;37.310;13.582;2023-10-09T06:10:38;13.40;;;6.07;;
61003;SDS011;46889;37.310;13.582;2023-10-09T06:13:07;9.68;;;6.30;;
61003;SDS011;46889;37.310;13.582;2023-10-09T06:15:51;9.33;;;6.10;;
61003;SDS011;46889;37.310;13.582;2023-10-09T06:18:34;10.32;;;5.75;;
61003;SDS011;46889;37.310;13.582;2023-10-09T06:21:06;9.30;;;5.32;;
61003;SDS011;46889;37.310;13.582;2023-10-09T06:23:32;10.25;;;5.93;;
61003;SDS011;46889;37.310;13.582;2023-10-09T06:26:28;9.35;;;5.40;;
61003;SDS011;46889;37.310;13.582;2023-10-09T06:28:58;11.52;;;6.30;;
61003;SDS011;46889;37.310;13.582;2023-10-09T06:31:39;12.57;;;5.82;;
61003;SDS011;46889;37.310;13.582;2023-10-09T06:34:27;8.88;;;5.65;;
61003;SDS011;46889;37.310;13.582;2023-10-09T06:37:00;11.02;;;5.75;;
61003;SDS011;46889;37.310;13.582;2023-10-09T06:39:54;8.88;;;5.78;;
61003;SDS011;46889;37.310;13.582;2023-10-09T06:42:24;9.40;;;5.93;;
61003;SDS011;46889;37.310;13.582;2023-10-09T06:45:20;9.05;;;5.10;;
61003;SDS011;46889;37.310;13.582;2023-10-09T06:47:47;10.43;;;5.90;;
61003;SDS011;46889;37.310;13.582;2023-10-09T06:50:34;9.98;;;4.75;;
61003;SDS011;46889;37.310;13.582;2023-10-09T06:53:19;9.98;;;4.82;;
61003;SDS011;46889;37.310;13.582;2023-10-09T06:55:45;13.70;;;5.25;;
61003;SDS011;46889;37.310;13.582;2023-10-09T06:58:15;8.75;;;5.50;;
61003;SDS011;46889;37.310;13.582;2023-10-09T07:00:51;10.05;;;5.22;;
61003;SDS011;46889;37.310;13.582;2023-10-09T07:06:03;9.50;;;5.20;;
61003;SDS011;46889;37.310;13.582;2023-10-09T07:08:56;7.97;;;4.95;;
61003;SDS011;46889;37.310;13.582;2023-10-09T07:14:08;10.07;;;4.93;;
61003;SDS011;46889;37.310;13.582;2023-10-09T07:16:53;7.40;;;4.93;;
61003;SDS011;46889;37.310;13.582;2023-10-09T07:20:10;13.68;;;4.85;;
61003;SDS011;46889;37.310;13.582;2023-10-09T07:22:40;9.75;;;4.72;;
61003;SDS011;46889;37.310;13.582;2023-10-09T07:25:21;9.93;;;4.70;;
61003;SDS011;46889;37.310;13.582;2023-10-09T07:28:10;8.57;;;5.28;;
61003;SDS011;46889;37.310;13.582;2023-10-09T07:31:02;7.40;;;4.82;;
61003;SDS011;46889;37.310;13.582;2023-10-09T07:33:29;9.55;;;4.82;;
61003;SDS011;46889;37.310;13.582;2023-10-09T07:36:00;9.30;;;4.82;;
61003;SDS011;46889;37.310;13.582;2023-10-09T07:38:33;8.88;;;4.90;;
61003;SDS011;46889;37.310;13.582;2023-10-09T07:41:02;7.60;;;4.82;;
61003;SDS011;46889;37.310;13.582;2023-10-09T07:43:38;12.55;;;4.78;;
61003;SDS011;46889;37.310;13.582;2023-10-09T07:46:08;8.23;;;5.18;;
61003;SDS011;46889;37.310;13.582;2023-10-09T07:48:55;13.20;;;4.90;;
61003;SDS011;46889;37.310;13.582;2023-10-09T07:51:22;8.30;;;5.35;;
61003;SDS011;46889;37.310;13.582;2023-10-09T07:53:56;9.10;;;4.82;;
61003;SDS011;46889;37.310;13.582;2023-10-09T07:56:34;10.07;;;4.85;;
61003;SDS011;46889;37.310;13.582;2023-10-09T07:59:13;12.70;;;5.28;;
61003;SDS011;46889;37.310;13.582;2023-10-09T08:01:44;7.88;;;4.80;;
61003;SDS011;46889;37.310;13.582;2023-10-09T08:04:22;8.80;;;4.70;;
61003;SDS011;46889;37.310;13.582;2023-10-09T08:07:03;12.48;;;4.95;;
61003;SDS011;46889;37.310;13.582;2023-10-09T08:09:33;10.68;;;4.78;;
61003;SDS011;46889;37.310;13.582;2023-10-09T08:12:12;10.38;;;4.25;;
61003;SDS011;46889;37.310;13.582;2023-10-09T08:14:41;13.63;;;5.25;;
61003;SDS011;46889;37.310;13.582;2023-10-09T08:17:13;9.68;;;4.63;;
61003;SDS011;46889;37.310;13.582;2023-10-09T08:22:42;12.82;;;4.70;;
61003;SDS011;46889;37.310;13.582;2023-10-09T08:25:12;8.55;;;4.43;;
61003;SDS011;46889;37.310;13.582;2023-10-09T08:28:13;9.00;;;4.35;;
61003;SDS011;46889;37.310;13.582;2023-10-09T08:30:39;11.90;;;4.40;;
61003;SDS011;46889;37.310;13.582;2023-10-09T08:33:20;10.55;;;4.90;;
61003;SDS011;46889;37.310;13.582;2023-10-09T08:35:55;13.05;;;4.68;;
61003;SDS011;46889;37.310;13.582;2023-10-09T08:38:32;8.88;;;4.72;;
61003;SDS011;46889;37.310;13.582;2023-10-09T08:41:08;15.50;;;4.65;;
61003;SDS011;46889;37.310;13.582;2023-10-09T08:43:52;11.85;;;4.70;;
61003;SDS011;46889;37.310;13.582;2023-10-09T08:46:19;9.88;;;4.50;;
61003;SDS011;46889;37.310;13.582;2023-10-09T08:48:58;11.60;;;4.75;;
61003;SDS011;46889;37.310;13.582;2023-10-09T08:51:25;9.25;;;4.63;;
61003;SDS011;46889;37.310;13.582;2023-10-09T08:53:52;9.50;;;4.38;;
61003;SDS011;46889;37.310;13.582;2023-10-09T08:56:19;13.38;;;4.60;;
61003;SDS011;46889;37.310;13.582;2023-10-09T08:58:50;10.77;;;4.43;;
61003;SDS011;46889;37.310;13.582;2023-10-09T09:01:23;9.52;;;4.40;;
61003;SDS011;46889;37.310;13.582;2023-10-09T09:03:50;10.25;;;4.88;;
61003;SDS011;46889;37.310;13.582;2023-10-09T09:06:20;10.90;;;5.63;;
61003;SDS011;46889;37.310;13.582;2023-10-09T09:08:48;8.88;;;4.93;;
61003;SDS011;46889;37.310;13.582;2023-10-09T09:11:29;11.68;;;4.97;;
61003;SDS011;46889;37.310;13.582;2023-10-09T09:16:32;14.57;;;4.93;;
61003;SDS011;46889;37.310;13.582;2023-10-09T09:19:03;12.15;;;5.40;;
61003;SDS011;46889;37.310;13.582;2023-10-09T09:21:35;9.65;;;4.88;;
61003;SDS011;46889;37.310;13.582;2023-10-09T09:24:09;10.25;;;4.75;;
61003;SDS011;46889;37.310;13.582;2023-10-09T09:26:49;8.30;;;4.72;;
61003;SDS011;46889;37.310;13.582;2023-10-09T09:29:38;17.45;;;4.95;;
61003;SDS011;46889;37.310;13.582;2023-10-09T09:32:15;11.00;;;5.05;;
61003;SDS011;46889;37.310;13.582;2023-10-09T09:34:48;11.75;;;4.68;;
61003;SDS011;46889;37.310;13.582;2023-10-09T09:37:27;10.57;;;4.35;;
61003;SDS011;46889;37.310;13.582;2023-10-09T09:39:57;16.05;;;5.22;;
61003;SDS011;46889;37.310;13.582;2023-10-09T09:42:26;12.38;;;4.65;;
61003;SDS011;46889;37.310;13.582;2023-10-09T09:44:56;9.02;;;4.68;;
61003;SDS011;46889;37.310;13.582;2023-10-09T09:47:26;11.25;;;4.72;;
61003;SDS011;46889;37.310;13.582;2023-10-09T09:52:33;12.10;;;6.38;;
61003;SDS011;46889;37.310;13.582;2023-10-09T09:55:09;22.85;;;10.13;;
61003;SDS011;46889;37.310;13.582;2023-10-09T09:57:46;16.75;;;10.13;;
61003;SDS011;46889;37.310;13.582;2023-10-09T10:00:18;47.58;;;22.05;;
61003;SDS011;46889;37.310;13.582;2023-10-09T10:03:00;41.95;;;19.17;;
61003;SDS011;46889;37.310;13.582;2023-10-09T10:05:32;21.38;;;9.82;;
61003;SDS011;46889;37.310;13.582;2023-10-09T10:07:59;15.57;;;6.57;;
61003;SDS011;46889;37.310;13.582;2023-10-09T10:13:04;12.65;;;5.85;;
61003;SDS011;46889;37.310;13.582;2023-10-09T10:18:31;9.60;;;5.10;;
61003;SDS011;46889;37.310;13.582;2023-10-09T10:21:10;8.95;;;5.35;;
61003;SDS011;46889;37.310;13.582;2023-10-09T10:23:44;9.63;;;4.43;;
61003;SDS011;46889;37.310;13.582;2023-10-09T10:26:22;12.68;;;7.07;;
61003;SDS011;46889;37.310;13.582;2023-10-09T10:31:52;7.10;;;4.55;;
61003;SDS011;46889;37.310;13.582;2023-10-09T10:34:25;13.05;;;4.75;;
61003;SDS011;46889;37.310;13.582;2023-10-09T10:36:51;12.90;;;5.50;;
61003;SDS011;46889;37.310;13.582;2023-10-09T10:39:31;10.40;;;4.47;;
61003;SDS011;46889;37.310;13.582;2023-10-09T10:42:09;8.25;;;4.22;;
61003;SDS011;46889;37.310;13.582;2023-10-09T10:44:55;14.85;;;4.82;;
61003;SDS011;46889;37.310;13.582;2023-10-09T10:47:25;11.60;;;4.75;;
61003;SDS011;46889;37.310;13.582;2023-10-09T10:50:02;12.52;;;4.88;;
61003;SDS011;46889;37.310;13.582;2023-10-09T10:52:47;7.82;;;5.15;;
61003;SDS011;46889;37.310;13.582;2023-10-09T10:55:22;8.18;;;4.85;;
61003;SDS011;46889;37.310;13.582;2023-10-09T10:57:55;8.40;;;4.93;;
61003;SDS011;46889;37.310;13.582;2023-10-09T11:00:26;10.95;;;4.68;;
61003;SDS011;46889;37.310;13.582;2023-10-09T11:03:18;12.88;;;5.10;;
61003;SDS011;46889;37.310;13.582;2023-10-09T11:05:54;10.70;;;4.90;;
61003;SDS011;46889;37.310;13.582;2023-10-09T11:08:38;11.68;;;5.03;;
61003;SDS011;46889;37.310;13.582;2023-10-09T11:11:19;10.40;;;5.45;;
61003;SDS011;46889;37.310;13.582;2023-10-09T11:13:47;11.25;;;5.30;;
61003;SDS011;46889;37.310;13.582;2023-10-09T11:16:30;13.90;;;5.50;;
61003;SDS011;46889;37.310;13.582;2023-10-09T11:18:59;8.82;;;5.10;;
61003;SDS011;46889;37.310;13.582;2023-10-09T11:21:38;11.25;;;5.10;;
61003;SDS011;46889;37.310;13.582;2023-10-09T11:24:08;12.55;;;7.72;;
61003;SDS011;46889;37.310;13.582;2023-10-09T11:26:49;24.50;;;13.80;;
61003;SDS011;46889;37.310;13.582;2023-10-09T11:29:20;12.25;;;6.60;;
61003;SDS011;46889;37.310;13.582;2023-10-09T11:34:31;11.45;;;7.40;;
61003;SDS011;46889;37.310;13.582;2023-10-09T11:37:01;12.85;;;7.07;;
61003;SDS011;46889;37.310;13.582;2023-10-09T11:39:30;11.90;;;5.38;;
61003;SDS011;46889;37.310;13.582;2023-10-09T11:42:03;14.85;;;5.68;;
61003;SDS011;46889;37.310;13.582;2023-10-09T11:44:40;12.20;;;6.60;;
61003;SDS011;46889;37.310;13.582;2023-10-09T11:47:11;14.57;;;5.60;;
61003;SDS011;46889;37.310;13.582;2023-10-09T11:49:49;9.30;;;5.00;;
61003;SDS011;46889;37.310;13.582;2023-10-09T11:52:28;11.10;;;5.10;;
61003;SDS011;46889;37.310;13.582;2023-10-09T11:55:03;9.73;;;5.05;;
61003;SDS011;46889;37.310;13.582;2023-10-09T11:57:32;8.82;;;4.60;;
61003;SDS011;46889;37.310;13.582;2023-10-09T12:00:03;11.20;;;4.32;;
61003;SDS011;46889;37.310;13.582;2023-10-09T12:02:37;14.90;;;4.95;;
61003;SDS011;46889;37.310;13.582;2023-10-09T12:05:10;10.02;;;4.25;;
61003;SDS011;46889;37.310;13.582;2023-10-09T12:10:11;14.57;;;4.22;;
61003;SDS011;46889;37.310;13.582;2023-10-09T12:12:39;11.32;;;4.30;;
61003;SDS011;46889;37.310;13.582;2023-10-09T12:15:10;12.20;;;4.68;;
61003;SDS011;46889;37.310;13.582;2023-10-09T12:17:42;9.07;;;4.30;;
61003;SDS011;46889;37.310;13.582;2023-10-09T12:20:15;11.63;;;4.53;;
61003;SDS011;46889;37.310;13.582;2023-10-09T12:22:57;6.88;;;3.58;;
61003;SDS011;46889;37.310;13.582;2023-10-09T12:25:31;9.93;;;4.00;;
61003;SDS011;46889;37.310;13.582;2023-10-09T12:27:59;10.60;;;3.58;;
61003;SDS011;46889;37.310;13.582;2023-10-09T12:30:29;10.85;;;4.00;;
61003;SDS011;46889;37.310;13.582;2023-10-09T12:32:56;12.90;;;4.55;;
61003;SDS011;46889;37.310;13.582;2023-10-09T12:35:24;11.38;;;4.57;;
61003;SDS011;46889;37.310;13.582;2023-10-09T12:37:51;11.60;;;4.60;;
61003;SDS011;46889;37.310;13.582;2023-10-09T12:40:22;10.77;;;4.10;;
61003;SDS011;46889;37.310;13.582;2023-10-09T12:42:56;11.05;;;4.40;;
61003;SDS011;46889;37.310;13.582;2023-10-09T12:45:28;10.90;;;4.45;;
61003;SDS011;46889;37.310;13.582;2023-10-09T12:48:00;10.38;;;4.00;;
61003;SDS011;46889;37.310;13.582;2023-10-09T12:50:34;9.20;;;3.80;;
61003;SDS011;46889;37.310;13.582;2023-10-09T12:53:06;13.75;;;4.22;;
61003;SDS011;46889;37.310;13.582;2023-10-09T12:55:37;9.55;;;3.80;;
61003;SDS011;46889;37.310;13.582;2023-10-09T12:58:07;11.07;;;3.95;;
61003;SDS011;46889;37.310;13.582;2023-10-09T13:00:35;11.90;;;3.33;;
61003;SDS011;46889;37.310;13.582;2023-10-09T13:03:12;9.32;;;3.65;;
61003;SDS011;46889;37.310;13.582;2023-10-09T13:05:49;10.90;;;4.00;;
61003;SDS011;46889;37.310;13.582;2023-10-09T13:08:27;10.70;;;3.78;;
61003;SDS011;46889;37.310;13.582;2023-10-09T13:11:03;10.45;;;3.88;;
61003;SDS011;46889;37.310;13.582;2023-10-09T13:13:36;16.83;;;4.40;;
61003;SDS011;46889;37.310;13.582;2023-10-09T13:16:10;8.57;;;4.18;;
61003;SDS011;46889;37.310;13.582;2023-10-09T13:18:42;7.65;;;4.35;;
61003;SDS011;46889;37.310;13.582;2023-10-09T13:21:18;11.43;;;4.15;;
61003;SDS011;46889;37.310;13.582;2023-10-09T13:23:46;10.18;;;4.18;;
61003;SDS011;46889;37.310;13.582;2023-10-09T13:26:21;8.55;;;4.28;;
61003;SDS011;46889;37.310;13.582;2023-10-09T13:28:55;9.43;;;4.13;;
61003;SDS011;46889;37.310;13.582;2023-10-09T13:31:23;7.57;;;3.97;;
61003;SDS011;46889;37.310;13.582;2023-10-09T13:33:53;9.82;;;3.85;;
61003;SDS011;46889;37.310;13.582;2023-10-09T13:36:21;13.73;;;4.28;;
61003;SDS011;46889;37.310;13.582;2023-10-09T13:39:00;11.02;;;3.63;;
61003;SDS011;46889;37.310;13.582;2023-10-09T13:41:45;7.70;;;3.45;;
61003;SDS011;46889;37.310;13.582;2023-10-09T13:44:11;8.38;;;3.35;;
61003;SDS011;46889;37.310;13.582;2023-10-09T13:46:39;10.50;;;3.85;;
61003;SDS011;46889;37.310;13.582;2023-10-09T13:49:08;8.82;;;4.00;;
61003;SDS011;46889;37.310;13.582;2023-10-09T13:51:42;10.85;;;3.78;;
61003;SDS011;46889;37.310;13.582;2023-10-09T13:54:12;10.85;;;3.67;;
61003;SDS011;46889;37.310;13.582;2023-10-09T13:57:08;9.60;;;3.40;;
61003;SDS011;46889;37.310;13.582;2023-10-09T13:59:36;9.82;;;3.75;;
61003;SDS011;46889;37.310;13.582;2023-10-09T14:02:07;9.18;;;3.90;;
61003;SDS011;46889;37.310;13.582;2023-10-09T14:04:42;10.35;;;3.85;;
61003;SDS011;46889;37.310;13.582;2023-10-09T14:07:09;7.85;;;3.65;;
61003;SDS011;46889;37.310;13.582;2023-10-09T14:09:35;10.77;;;4.07;;
61003;SDS011;46889;37.310;13.582;2023-10-09T14:12:10;11.68;;;4.00;;
61003;SDS011;46889;37.310;13.582;2023-10-09T14:14:39;6.43;;;3.47;;
61003;SDS011;46889;37.310;13.582;2023-10-09T14:17:22;7.93;;;4.25;;
61003;SDS011;46889;37.310;13.582;2023-10-09T14:19:49;13.65;;;7.55;;
61003;SDS011;46889;37.310;13.582;2023-10-09T14:22:19;37.92;;;23.65;;
61003;SDS011;46889;37.310;13.582;2023-10-09T14:24:49;17.95;;;10.50;;
61003;SDS011;46889;37.310;13.582;2023-10-09T14:27:23;12.85;;;5.25;;
61003;SDS011;46889;37.310;13.582;2023-10-09T14:29:53;13.65;;;5.95;;
61003;SDS011;46889;37.310;13.582;2023-10-09T14:32:24;14.70;;;6.68;;
61003;SDS011;46889;37.310;13.582;2023-10-09T14:34:56;25.98;;;15.93;;
61003;SDS011;46889;37.310;13.582;2023-10-09T14:37:26;18.85;;;11.38;;
61003;SDS011;46889;37.310;13.582;2023-10-09T14:39:52;14.45;;;6.78;;
61003;SDS011;46889;37.310;13.582;2023-10-09T14:42:21;50.08;;;5.68;;
61003;SDS011;46889;37.310;13.582;2023-10-09T14:44:49;13.98;;;4.47;;
61003;SDS011;46889;37.310;13.582;2023-10-09T14:47:15;19.52;;;4.13;;
61003;SDS011;46889;37.310;13.582;2023-10-09T14:49:46;12.18;;;4.45;;
61003;SDS011;46889;37.310;13.582;2023-10-09T14:52:13;11.50;;;3.92;;
61003;SDS011;46889;37.310;13.582;2023-10-09T14:54:45;10.95;;;4.28;;
61003;SDS011;46889;37.310;13.582;2023-10-09T14:57:12;11.85;;;4.18;;
61003;SDS011;46889;37.310;13.582;2023-10-09T14:59:39;9.52;;;4.13;;
61003;SDS011;46889;37.310;13.582;2023-10-09T15:02:05;10.75;;;4.05;;
61003;SDS011;46889;37.310;13.582;2023-10-09T15:04:32;13.15;;;4.60;;
61003;SDS011;46889;37.310;13.582;2023-10-09T15:07:02;14.25;;;4.82;;
61003;SDS011;46889;37.310;13.582;2023-10-09T15:09:32;14.10;;;4.80;;
61003;SDS011;46889;37.310;13.582;2023-10-09T15:12:01;13.60;;;5.07;;
61003;SDS011;46889;37.310;13.582;2023-10-09T15:14:27;9.75;;;4.75;;
61003;SDS011;46889;37.310;13.582;2023-10-09T15:16:53;14.68;;;5.40;;
61003;SDS011;46889;37.310;13.582;2023-10-09T15:19:20;14.82;;;6.70;;
61003;SDS011;46889;37.310;13.582;2023-10-09T15:21:56;13.35;;;6.45;;
61003;SDS011;46889;37.310;13.582;2023-10-09T15:24:23;14.88;;;6.18;;
61003;SDS011;46889;37.310;13.582;2023-10-09T15:26:51;14.25;;;6.47;;
61003;SDS011;46889;37.310;13.582;2023-10-09T15:29:19;16.17;;;6.50;;
61003;SDS011;46889;37.310;13.582;2023-10-09T15:31:56;12.13;;;7.40;;
61003;SDS011;46889;37.310;13.582;2023-10-09T15:34:31;30.85;;;8.30;;
61003;SDS011;46889;37.310;13.582;2023-10-09T15:36:59;16.38;;;8.05;;
61003;SDS011;46889;37.310;13.582;2023-10-09T15:41:51;15.98;;;9.57;;